sensor_id;sensor_type;location;lat;lon;timestamp;P1;durP1;ratioP1;P2;durP2;ratioP2
1885;SDS011;943;51.568;6.998;2023-02-28T00:01:43;11.00;;;7.33;;
1885;SDS011;943;51.568;6.998;2023-02-28T00:04:11;8.60;;;6.53;;
1885;SDS011;943;51.568;6.998;2023-02-28T00:06:39;10.43;;;6.20;;
1885;SDS011;943;51.568;6.998;2023-02-28T00:09:08;7.40;;;5.90;;
1885;SDS011;943;51.568;6.998;2023-02-28T00:11:36;8.87;;;6.73;;
1885;SDS011;943;51.568;6.998;2023-02-28T00:14:04;9.50;;;7.57;;
1885;SDS011;943;51.568;6.998;2023-02-28T00:16:32;9.00;;;6.10;;
1885;SDS011;943;51.568;6.998;2023-02-28T00:19:00;8.47;;;6.57;;
1885;SDS011;943;51.568;6.998;2023-02-28T00:21:28;9.90;;;6.90;;
1885;SDS011;943;51.568;6.998;2023-02-28T00:23:57;9.73;;;6.70;;
1885;SDS011;943;51.568;6.998;2023-02-28T00:26:24;11.37;;;7.10;;
1885;SDS011;943;51.568;6.998;2023-02-28T00:28:52;9.30;;;6.07;;
1885;SDS011;943;51.568;6.998;2023-02-28T00:31:21;18.40;;;8.23;;
1885;SDS011;943;51.568;6.998;2023-02-28T00:33:49;15.50;;;5.97;;
1885;SDS011;943;51.568;6.998;2023-02-28T00:36:19;8.63;;;6.70;;
1885;SDS011;943;51.568;6.998;2023-02-28T00:38:47;7.17;;;5.70;;
1885;SDS011;943;51.568;6.998;2023-02-28T00:41:15;10.87;;;6.00;;
1885;SDS011;943;51.568;6.998;2023-02-28T00:43:43;6.57;;;5.70;;
1885;SDS011;943;51.568;6.998;2023-02-28T00:46:11;9.23;;;5.80;;
1885;SDS011;943;51.568;6.998;2023-02-28T00:48:40;6.53;;;4.67;;
1885;SDS011;943;51.568;6.998;2023-02-28T00:51:07;8.40;;;5.23;;
1885;SDS011;943;51.568;6.998;2023-02-28T00:53:35;8.60;;;4.77;;
1885;SDS011;943;51.568;6.998;2023-02-28T00:56:03;7.00;;;4.63;;
1885;SDS011;943;51.568;6.998;2023-02-28T00:58:32;6.90;;;4.70;;
1885;SDS011;943;51.568;6.998;2023-02-28T01:01:00;8.67;;;5.10;;
1885;SDS011;943;51.568;6.998;2023-02-28T01:03:28;7.43;;;5.77;;
1885;SDS011;943;51.568;6.998;2023-02-28T01:05:57;10.47;;;5.80;;
1885;SDS011;943;51.568;6.998;2023-02-28T01:08:25;12.33;;;6.27;;
1885;SDS011;943;51.568;6.998;2023-02-28T01:10:54;11.23;;;5.70;;
1885;SDS011;943;51.568;6.998;2023-02-28T01:13:22;8.73;;;5.70;;
1885;SDS011;943;51.568;6.998;2023-02-28T01:15:52;11.03;;;5.60;;
1885;SDS011;943;51.568;6.998;2023-02-28T01:18:23;10.87;;;5.43;;
1885;SDS011;943;51.568;6.998;2023-02-28T01:20:52;8.87;;;5.43;;
1885;SDS011;943;51.568;6.998;2023-02-28T01:23:21;9.00;;;5.23;;
1885;SDS011;943;51.568;6.998;2023-02-28T01:25:50;6.83;;;4.63;;
1885;SDS011;943;51.568;6.998;2023-02-28T01:28:19;9.03;;;5.57;;
1885;SDS011;943;51.568;6.998;2023-02-28T01:30:49;5.77;;;4.30;;
1885;SDS011;943;51.568;6.998;2023-02-28T01:33:18;6.00;;;4.20;;
1885;SDS011;943;51.568;6.998;2023-02-28T01:35:46;7.00;;;4.50;;
1885;SDS011;943;51.568;6.998;2023-02-28T01:38:15;7.27;;;4.80;;
1885;SDS011;943;51.568;6.998;2023-02-28T01:40:48;7.10;;;4.60;;
1885;SDS011;943;51.568;6.998;2023-02-28T01:43:22;6.13;;;3.90;;
1885;SDS011;943;51.568;6.998;2023-02-28T01:45:59;7.23;;;4.37;;
1885;SDS011;943;51.568;6.998;2023-02-28T01:48:34;4.10;;;3.43;;
1885;SDS011;943;51.568;6.998;2023-02-28T01:51:28;6.47;;;3.70;;
1885;SDS011;943;51.568;6.998;2023-02-28T01:54:07;11.10;;;4.13;;
1885;SDS011;943;51.568;6.998;2023-02-28T01:56:50;6.20;;;4.23;;
1885;SDS011;943;51.568;6.998;2023-02-28T01:59:53;5.30;;;4.33;;
1885;SDS011;943;51.568;6.998;2023-02-28T02:02:38;7.53;;;4.37;;
1885;SDS011;943;51.568;6.998;2023-02-28T02:05:11;5.73;;;3.57;;
1885;SDS011;943;51.568;6.998;2023-02-28T02:10:56;8.70;;;3.83;;
1885;SDS011;943;51.568;6.998;2023-02-28T02:16:38;6.03;;;4.13;;
1885;SDS011;943;51.568;6.998;2023-02-28T02:20:10;5.30;;;3.80;;
1885;SDS011;943;51.568;6.998;2023-02-28T02:27:38;6.87;;;3.73;;
1885;SDS011;943;51.568;6.998;2023-02-28T02:34:36;9.23;;;4.70;;
1885;SDS011;943;51.568;6.998;2023-02-28T02:40:12;5.93;;;4.00;;
1885;SDS011;943;51.568;6.998;2023-02-28T02:43:04;6.97;;;4.30;;
1885;SDS011;943;51.568;6.998;2023-02-28T02:45:50;6.40;;;4.90;;
1885;SDS011;943;51.568;6.998;2023-02-28T02:48:32;7.97;;;4.40;;
1885;SDS011;943;51.568;6.998;2023-02-28T02:51:07;10.03;;;5.20;;
1885;SDS011;943;51.568;6.998;2023-02-28T02:53:57;8.10;;;4.70;;
1885;SDS011;943;51.568;6.998;2023-02-28T02:56:44;6.83;;;5.10;;
1885;SDS011;943;51.568;6.998;2023-02-28T02:59:18;7.77;;;5.20;;
1885;SDS011;943;51.568;6.998;2023-02-28T03:02:00;6.37;;;4.80;;
1885;SDS011;943;51.568;6.998;2023-02-28T03:04:38;5.87;;;4.57;;
1885;SDS011;943;51.568;6.998;2023-02-28T03:07:21;7.10;;;4.33;;
1885;SDS011;943;51.568;6.998;2023-02-28T03:09:56;7.67;;;4.23;;
1885;SDS011;943;51.568;6.998;2023-02-28T03:12:31;5.57;;;4.17;;
1885;SDS011;943;51.568;6.998;2023-02-28T03:15:27;6.87;;;4.97;;
1885;SDS011;943;51.568;6.998;2023-02-28T03:18:39;5.47;;;4.33;;
1885;SDS011;943;51.568;6.998;2023-02-28T03:31:05;10.30;;;4.53;;
1885;SDS011;943;51.568;6.998;2023-02-28T03:34:02;8.43;;;3.90;;
1885;SDS011;943;51.568;6.998;2023-02-28T03:36:57;8.10;;;4.70;;
1885;SDS011;943;51.568;6.998;2023-02-28T03:39:57;7.00;;;4.30;;
1885;SDS011;943;51.568;6.998;2023-02-28T03:42:43;7.73;;;4.53;;
1885;SDS011;943;51.568;6.998;2023-02-28T03:45:24;6.00;;;4.03;;
1885;SDS011;943;51.568;6.998;2023-02-28T03:48:10;8.87;;;4.83;;
1885;SDS011;943;51.568;6.998;2023-02-28T03:51:10;8.20;;;4.33;;
1885;SDS011;943;51.568;6.998;2023-02-28T03:53:53;12.30;;;5.10;;
1885;SDS011;943;51.568;6.998;2023-02-28T03:56:50;10.80;;;6.10;;
1885;SDS011;943;51.568;6.998;2023-02-28T04:02:54;7.93;;;4.43;;
1885;SDS011;943;51.568;6.998;2023-02-28T04:05:23;6.20;;;3.93;;
1885;SDS011;943;51.568;6.998;2023-02-28T04:07:52;6.83;;;3.50;;
1885;SDS011;943;51.568;6.998;2023-02-28T04:10:20;6.73;;;3.97;;
1885;SDS011;943;51.568;6.998;2023-02-28T04:12:48;8.90;;;3.93;;
1885;SDS011;943;51.568;6.998;2023-02-28T04:15:16;5.50;;;3.53;;
1885;SDS011;943;51.568;6.998;2023-02-28T04:17:44;5.77;;;3.70;;
1885;SDS011;943;51.568;6.998;2023-02-28T04:20:12;9.33;;;4.43;;
1885;SDS011;943;51.568;6.998;2023-02-28T04:22:40;4.90;;;3.40;;
1885;SDS011;943;51.568;6.998;2023-02-28T04:25:08;7.20;;;3.60;;
1885;SDS011;943;51.568;6.998;2023-02-28T04:27:36;9.57;;;3.90;;
1885;SDS011;943;51.568;6.998;2023-02-28T04:30:04;4.70;;;3.60;;
1885;SDS011;943;51.568;6.998;2023-02-28T04:32:34;7.17;;;4.10;;
1885;SDS011;943;51.568;6.998;2023-02-28T04:35:02;6.53;;;4.17;;
1885;SDS011;943;51.568;6.998;2023-02-28T04:37:30;4.43;;;3.50;;
1885;SDS011;943;51.568;6.998;2023-02-28T04:40:01;11.00;;;4.10;;
1885;SDS011;943;51.568;6.998;2023-02-28T04:42:30;6.40;;;4.27;;
1885;SDS011;943;51.568;6.998;2023-02-28T04:45:02;9.10;;;4.00;;
1885;SDS011;943;51.568;6.998;2023-02-28T04:47:31;4.30;;;3.00;;
1885;SDS011;943;51.568;6.998;2023-02-28T04:49:59;4.37;;;3.50;;
1885;SDS011;943;51.568;6.998;2023-02-28T04:52:27;9.70;;;4.13;;
1885;SDS011;943;51.568;6.998;2023-02-28T04:54:55;5.13;;;3.60;;
1885;SDS011;943;51.568;6.998;2023-02-28T04:57:23;5.87;;;3.87;;
1885;SDS011;943;51.568;6.998;2023-02-28T04:59:51;6.27;;;3.90;;
1885;SDS011;943;51.568;6.998;2023-02-28T05:02:19;4.67;;;3.20;;
1885;SDS011;943;51.568;6.998;2023-02-28T05:04:47;6.07;;;4.00;;
1885;SDS011;943;51.568;6.998;2023-02-28T05:07:15;5.07;;;3.50;;
1885;SDS011;943;51.568;6.998;2023-02-28T05:09:43;7.20;;;3.87;;
1885;SDS011;943;51.568;6.998;2023-02-28T05:12:11;5.10;;;3.63;;
1885;SDS011;943;51.568;6.998;2023-02-28T05:14:38;5.77;;;3.67;;
1885;SDS011;943;51.568;6.998;2023-02-28T05:17:07;7.37;;;3.30;;
1885;SDS011;943;51.568;6.998;2023-02-28T05:19:37;4.33;;;2.93;;
1885;SDS011;943;51.568;6.998;2023-02-28T05:22:04;5.63;;;4.40;;
1885;SDS011;943;51.568;6.998;2023-02-28T05:24:43;6.47;;;3.40;;
1885;SDS011;943;51.568;6.998;2023-02-28T05:27:11;7.40;;;3.83;;
1885;SDS011;943;51.568;6.998;2023-02-28T05:29:39;9.33;;;3.90;;
1885;SDS011;943;51.568;6.998;2023-02-28T05:32:12;4.80;;;3.43;;
1885;SDS011;943;51.568;6.998;2023-02-28T05:34:41;6.80;;;3.33;;
1885;SDS011;943;51.568;6.998;2023-02-28T05:37:10;6.83;;;3.90;;
1885;SDS011;943;51.568;6.998;2023-02-28T05:39:41;6.67;;;4.17;;
1885;SDS011;943;51.568;6.998;2023-02-28T05:42:09;7.13;;;3.90;;
1885;SDS011;943;51.568;6.998;2023-02-28T05:44:37;5.43;;;3.80;;
1885;SDS011;943;51.568;6.998;2023-02-28T05:47:05;7.23;;;4.47;;
1885;SDS011;943;51.568;6.998;2023-02-28T05:49:32;6.00;;;3.47;;
1885;SDS011;943;51.568;6.998;2023-02-28T05:52:01;9.13;;;5.83;;
1885;SDS011;943;51.568;6.998;2023-02-28T05:54:31;4.70;;;3.67;;
1885;SDS011;943;51.568;6.998;2023-02-28T05:56:59;4.67;;;4.17;;
1885;SDS011;943;51.568;6.998;2023-02-28T05:59:27;7.10;;;3.90;;
1885;SDS011;943;51.568;6.998;2023-02-28T06:01:54;7.43;;;4.10;;
1885;SDS011;943;51.568;6.998;2023-02-28T06:04:22;6.37;;;4.00;;
1885;SDS011;943;51.568;6.998;2023-02-28T06:06:57;6.50;;;4.63;;
1885;SDS011;943;51.568;6.998;2023-02-28T06:09:25;5.70;;;4.07;;
1885;SDS011;943;51.568;6.998;2023-02-28T06:11:53;7.97;;;4.27;;
1885;SDS011;943;51.568;6.998;2023-02-28T06:14:24;5.87;;;3.87;;
1885;SDS011;943;51.568;6.998;2023-02-28T06:16:52;8.77;;;5.23;;
1885;SDS011;943;51.568;6.998;2023-02-28T06:19:21;6.13;;;4.40;;
1885;SDS011;943;51.568;6.998;2023-02-28T06:21:52;5.60;;;4.47;;
1885;SDS011;943;51.568;6.998;2023-02-28T06:24:23;10.60;;;5.30;;
1885;SDS011;943;51.568;6.998;2023-02-28T06:26:56;7.20;;;4.67;;
1885;SDS011;943;51.568;6.998;2023-02-28T06:29:32;5.33;;;4.50;;
1885;SDS011;943;51.568;6.998;2023-02-28T06:32:01;9.20;;;4.67;;
1885;SDS011;943;51.568;6.998;2023-02-28T06:34:29;7.97;;;5.20;;
1885;SDS011;943;51.568;6.998;2023-02-28T06:36:57;8.13;;;5.87;;
1885;SDS011;943;51.568;6.998;2023-02-28T06:39:29;7.80;;;4.77;;
1885;SDS011;943;51.568;6.998;2023-02-28T06:41:58;7.70;;;5.10;;
1885;SDS011;943;51.568;6.998;2023-02-28T06:44:26;5.60;;;4.33;;
1885;SDS011;943;51.568;6.998;2023-02-28T06:46:59;6.93;;;4.43;;
1885;SDS011;943;51.568;6.998;2023-02-28T06:49:31;7.03;;;4.70;;
1885;SDS011;943;51.568;6.998;2023-02-28T06:52:02;6.17;;;4.50;;
1885;SDS011;943;51.568;6.998;2023-02-28T06:54:30;7.97;;;4.97;;
1885;SDS011;943;51.568;6.998;2023-02-28T06:56:58;6.60;;;4.73;;
1885;SDS011;943;51.568;6.998;2023-02-28T06:59:26;5.47;;;4.30;;
1885;SDS011;943;51.568;6.998;2023-02-28T07:01:54;6.83;;;4.30;;
1885;SDS011;943;51.568;6.998;2023-02-28T07:04:22;5.87;;;4.50;;
1885;SDS011;943;51.568;6.998;2023-02-28T07:06:50;5.80;;;3.60;;
1885;SDS011;943;51.568;6.998;2023-02-28T07:09:17;9.47;;;5.13;;
1885;SDS011;943;51.568;6.998;2023-02-28T07:11:45;5.40;;;4.47;;
1885;SDS011;943;51.568;6.998;2023-02-28T07:14:13;10.60;;;4.63;;
1885;SDS011;943;51.568;6.998;2023-02-28T07:16:41;5.17;;;3.67;;
1885;SDS011;943;51.568;6.998;2023-02-28T07:19:09;5.43;;;4.37;;
1885;SDS011;943;51.568;6.998;2023-02-28T07:21:36;8.27;;;4.53;;
1885;SDS011;943;51.568;6.998;2023-02-28T07:24:04;8.57;;;4.77;;
1885;SDS011;943;51.568;6.998;2023-02-28T07:26:33;6.40;;;4.70;;
1885;SDS011;943;51.568;6.998;2023-02-28T07:29:01;8.60;;;4.30;;
1885;SDS011;943;51.568;6.998;2023-02-28T07:31:32;8.50;;;4.47;;
1885;SDS011;943;51.568;6.998;2023-02-28T07:34:04;7.40;;;3.57;;
1885;SDS011;943;51.568;6.998;2023-02-28T07:36:32;7.43;;;3.73;;
1885;SDS011;943;51.568;6.998;2023-02-28T07:39:00;5.93;;;3.50;;
1885;SDS011;943;51.568;6.998;2023-02-28T07:41:28;15.03;;;4.27;;
1885;SDS011;943;51.568;6.998;2023-02-28T07:43:56;6.10;;;4.07;;
1885;SDS011;943;51.568;6.998;2023-02-28T07:46:26;7.73;;;3.70;;
1885;SDS011;943;51.568;6.998;2023-02-28T07:48:56;7.47;;;3.67;;
1885;SDS011;943;51.568;6.998;2023-02-28T07:51:26;5.60;;;3.80;;
1885;SDS011;943;51.568;6.998;2023-02-28T07:53:54;5.07;;;3.50;;
1885;SDS011;943;51.568;6.998;2023-02-28T07:56:23;6.07;;;4.27;;
1885;SDS011;943;51.568;6.998;2023-02-28T07:58:51;5.90;;;4.00;;
1885;SDS011;943;51.568;6.998;2023-02-28T08:01:19;6.30;;;4.37;;
1885;SDS011;943;51.568;6.998;2023-02-28T08:03:48;15.97;;;4.60;;
1885;SDS011;943;51.568;6.998;2023-02-28T08:06:17;5.97;;;4.30;;
1885;SDS011;943;51.568;6.998;2023-02-28T08:08:50;6.27;;;4.47;;
1885;SDS011;943;51.568;6.998;2023-02-28T08:11:20;6.00;;;4.07;;
1885;SDS011;943;51.568;6.998;2023-02-28T08:13:48;5.57;;;3.97;;
1885;SDS011;943;51.568;6.998;2023-02-28T08:16:17;6.93;;;3.53;;
1885;SDS011;943;51.568;6.998;2023-02-28T08:18:49;7.13;;;3.90;;
1885;SDS011;943;51.568;6.998;2023-02-28T08:21:20;4.83;;;3.80;;
1885;SDS011;943;51.568;6.998;2023-02-28T08:23:49;5.23;;;3.60;;
1885;SDS011;943;51.568;6.998;2023-02-28T08:26:18;5.13;;;3.20;;
1885;SDS011;943;51.568;6.998;2023-02-28T08:28:47;5.53;;;3.57;;
1885;SDS011;943;51.568;6.998;2023-02-28T08:31:16;6.20;;;4.20;;
1885;SDS011;943;51.568;6.998;2023-02-28T08:33:45;5.00;;;3.50;;
1885;SDS011;943;51.568;6.998;2023-02-28T08:36:16;4.70;;;3.40;;
1885;SDS011;943;51.568;6.998;2023-02-28T08:38:45;6.07;;;3.43;;
1885;SDS011;943;51.568;6.998;2023-02-28T08:41:13;5.23;;;3.50;;
1885;SDS011;943;51.568;6.998;2023-02-28T08:43:41;8.23;;;4.00;;
1885;SDS011;943;51.568;6.998;2023-02-28T08:46:13;3.90;;;3.13;;
1885;SDS011;943;51.568;6.998;2023-02-28T08:48:41;3.90;;;2.90;;
1885;SDS011;943;51.568;6.998;2023-02-28T08:51:11;4.30;;;2.87;;
1885;SDS011;943;51.568;6.998;2023-02-28T08:53:48;3.80;;;3.00;;
1885;SDS011;943;51.568;6.998;2023-02-28T08:56:16;4.03;;;2.50;;
1885;SDS011;943;51.568;6.998;2023-02-28T08:58:45;3.37;;;2.37;;
1885;SDS011;943;51.568;6.998;2023-02-28T09:01:21;4.83;;;2.70;;
1885;SDS011;943;51.568;6.998;2023-02-28T09:03:56;3.53;;;2.50;;
1885;SDS011;943;51.568;6.998;2023-02-28T09:06:26;4.20;;;2.07;;
1885;SDS011;943;51.568;6.998;2023-02-28T09:08:56;4.33;;;2.97;;
1885;SDS011;943;51.568;6.998;2023-02-28T09:11:28;4.50;;;3.30;;
1885;SDS011;943;51.568;6.998;2023-02-28T09:13:56;3.67;;;2.87;;
1885;SDS011;943;51.568;6.998;2023-02-28T09:16:27;4.17;;;2.70;;
1885;SDS011;943;51.568;6.998;2023-02-28T09:18:55;2.77;;;1.80;;
1885;SDS011;943;51.568;6.998;2023-02-28T09:21:23;4.50;;;2.80;;
1885;SDS011;943;51.568;6.998;2023-02-28T09:23:51;3.33;;;1.93;;
1885;SDS011;943;51.568;6.998;2023-02-28T09:26:24;3.60;;;2.27;;
1885;SDS011;943;51.568;6.998;2023-02-28T09:29:08;3.83;;;2.03;;
1885;SDS011;943;51.568;6.998;2023-02-28T09:31:37;3.40;;;1.83;;
1885;SDS011;943;51.568;6.998;2023-02-28T09:34:05;6.20;;;2.40;;
1885;SDS011;943;51.568;6.998;2023-02-28T09:36:33;4.50;;;2.67;;
1885;SDS011;943;51.568;6.998;2023-02-28T09:39:11;3.40;;;1.77;;
1885;SDS011;943;51.568;6.998;2023-02-28T09:41:43;4.80;;;3.03;;
1885;SDS011;943;51.568;6.998;2023-02-28T09:52:54;3.60;;;2.63;;
1885;SDS011;943;51.568;6.998;2023-02-28T09:58:20;5.03;;;1.97;;
1885;SDS011;943;51.568;6.998;2023-02-28T10:10:42;4.03;;;2.30;;
1885;SDS011;943;51.568;6.998;2023-02-28T10:13:37;11.30;;;3.40;;
1885;SDS011;943;51.568;6.998;2023-02-28T10:22:49;4.90;;;2.23;;
1885;SDS011;943;51.568;6.998;2023-02-28T10:25:38;8.07;;;2.37;;
1885;SDS011;943;51.568;6.998;2023-02-28T10:30:44;3.13;;;2.13;;
1885;SDS011;943;51.568;6.998;2023-02-28T10:33:23;3.17;;;1.77;;
1885;SDS011;943;51.568;6.998;2023-02-28T10:36:02;3.80;;;2.50;;
1885;SDS011;943;51.568;6.998;2023-02-28T10:38:39;6.03;;;3.10;;
1885;SDS011;943;51.568;6.998;2023-02-28T10:41:11;6.27;;;2.77;;
1885;SDS011;943;51.568;6.998;2023-02-28T10:44:22;3.00;;;2.10;;
1885;SDS011;943;51.568;6.998;2023-02-28T10:46:50;3.70;;;2.20;;
1885;SDS011;943;51.568;6.998;2023-02-28T10:49:23;3.73;;;2.27;;
1885;SDS011;943;51.568;6.998;2023-02-28T10:51:59;3.53;;;2.33;;
1885;SDS011;943;51.568;6.998;2023-02-28T10:59:51;3.83;;;2.13;;
1885;SDS011;943;51.568;6.998;2023-02-28T11:02:45;2.83;;;2.13;;
1885;SDS011;943;51.568;6.998;2023-02-28T11:08:10;3.10;;;1.40;;
1885;SDS011;943;51.568;6.998;2023-02-28T11:10:53;4.53;;;2.50;;
1885;SDS011;943;51.568;6.998;2023-02-28T11:13:33;6.23;;;2.30;;
1885;SDS011;943;51.568;6.998;2023-02-28T11:16:07;3.63;;;2.00;;
1885;SDS011;943;51.568;6.998;2023-02-28T11:21:28;3.00;;;1.60;;
1885;SDS011;943;51.568;6.998;2023-02-28T11:24:12;3.40;;;1.90;;
1885;SDS011;943;51.568;6.998;2023-02-28T11:29:57;3.73;;;1.90;;
1885;SDS011;943;51.568;6.998;2023-02-28T11:32:28;4.53;;;2.33;;
1885;SDS011;943;51.568;6.998;2023-02-28T11:37:38;3.90;;;1.90;;
1885;SDS011;943;51.568;6.998;2023-02-28T11:40:22;3.90;;;2.37;;
1885;SDS011;943;51.568;6.998;2023-02-28T11:43:19;3.80;;;2.20;;
1885;SDS011;943;51.568;6.998;2023-02-28T11:46:14;3.23;;;2.10;;
1885;SDS011;943;51.568;6.998;2023-02-28T11:55:24;6.27;;;2.83;;
1885;SDS011;943;51.568;6.998;2023-02-28T12:01:22;3.90;;;2.60;;
1885;SDS011;943;51.568;6.998;2023-02-28T12:11:06;8.50;;;4.53;;
1885;SDS011;943;51.568;6.998;2023-02-28T12:17:43;3.57;;;2.60;;
1885;SDS011;943;51.568;6.998;2023-02-28T12:21:01;4.40;;;2.43;;
1885;SDS011;943;51.568;6.998;2023-02-28T12:27:09;3.63;;;2.43;;
1885;SDS011;943;51.568;6.998;2023-02-28T12:29:48;3.53;;;2.20;;
1885;SDS011;943;51.568;6.998;2023-02-28T12:33:07;4.17;;;2.90;;
1885;SDS011;943;51.568;6.998;2023-02-28T12:36:04;6.70;;;4.37;;
1885;SDS011;943;51.568;6.998;2023-02-28T12:38:48;4.40;;;3.20;;
1885;SDS011;943;51.568;6.998;2023-02-28T12:41:56;6.43;;;2.93;;
1885;SDS011;943;51.568;6.998;2023-02-28T12:44:44;3.73;;;2.73;;
1885;SDS011;943;51.568;6.998;2023-02-28T12:47:23;4.67;;;2.67;;
1885;SDS011;943;51.568;6.998;2023-02-28T12:50:08;4.30;;;3.07;;
1885;SDS011;943;51.568;6.998;2023-02-28T12:56:19;3.40;;;2.60;;
1885;SDS011;943;51.568;6.998;2023-02-28T12:59:31;6.20;;;3.10;;
1885;SDS011;943;51.568;6.998;2023-02-28T13:02:24;5.93;;;2.87;;
1885;SDS011;943;51.568;6.998;2023-02-28T13:09:05;5.77;;;3.73;;
1885;SDS011;943;51.568;6.998;2023-02-28T13:11:43;4.60;;;3.10;;
1885;SDS011;943;51.568;6.998;2023-02-28T13:19:36;4.37;;;2.97;;
1885;SDS011;943;51.568;6.998;2023-02-28T13:22:35;3.83;;;2.80;;
1885;SDS011;943;51.568;6.998;2023-02-28T13:27:50;5.00;;;3.10;;
1885;SDS011;943;51.568;6.998;2023-02-28T13:33:24;4.03;;;3.10;;
1885;SDS011;943;51.568;6.998;2023-02-28T13:38:48;4.53;;;3.03;;
1885;SDS011;943;51.568;6.998;2023-02-28T13:44:17;4.30;;;3.10;;
1885;SDS011;943;51.568;6.998;2023-02-28T13:51:53;3.70;;;2.37;;
1885;SDS011;943;51.568;6.998;2023-02-28T14:04:54;4.43;;;3.20;;
1885;SDS011;943;51.568;6.998;2023-02-28T14:07:48;5.10;;;2.80;;
1885;SDS011;943;51.568;6.998;2023-02-28T14:10:33;4.53;;;3.20;;
1885;SDS011;943;51.568;6.998;2023-02-28T14:13:41;4.07;;;3.10;;
1885;SDS011;943;51.568;6.998;2023-02-28T14:16:14;7.17;;;3.53;;
1885;SDS011;943;51.568;6.998;2023-02-28T14:19:13;4.80;;;3.57;;
1885;SDS011;943;51.568;6.998;2023-02-28T14:22:05;6.37;;;3.17;;
1885;SDS011;943;51.568;6.998;2023-02-28T14:25:27;3.97;;;2.70;;
1885;SDS011;943;51.568;6.998;2023-02-28T14:31:58;4.23;;;3.30;;
1885;SDS011;943;51.568;6.998;2023-02-28T14:35:54;6.97;;;3.40;;
1885;SDS011;943;51.568;6.998;2023-02-28T14:39:00;4.47;;;3.60;;
1885;SDS011;943;51.568;6.998;2023-02-28T14:41:42;3.77;;;3.07;;
1885;SDS011;943;51.568;6.998;2023-02-28T14:46:55;5.30;;;3.77;;
1885;SDS011;943;51.568;6.998;2023-02-28T14:49:36;4.43;;;3.67;;
1885;SDS011;943;51.568;6.998;2023-02-28T14:52:20;4.53;;;3.50;;
1885;SDS011;943;51.568;6.998;2023-02-28T14:54:56;4.87;;;3.77;;
1885;SDS011;943;51.568;6.998;2023-02-28T14:57:40;5.70;;;3.83;;
1885;SDS011;943;51.568;6.998;2023-02-28T15:00:28;4.90;;;4.07;;
1885;SDS011;943;51.568;6.998;2023-02-28T15:03:22;4.40;;;3.30;;
1885;SDS011;943;51.568;6.998;2023-02-28T15:06:01;4.73;;;3.10;;
1885;SDS011;943;51.568;6.998;2023-02-28T15:08:48;3.83;;;3.13;;
1885;SDS011;943;51.568;6.998;2023-02-28T15:11:44;4.47;;;2.60;;
1885;SDS011;943;51.568;6.998;2023-02-28T15:14:18;5.63;;;3.50;;
1885;SDS011;943;51.568;6.998;2023-02-28T15:16:56;11.60;;;2.97;;
1885;SDS011;943;51.568;6.998;2023-02-28T15:19:36;4.57;;;2.83;;
1885;SDS011;943;51.568;6.998;2023-02-28T15:22:15;5.17;;;3.67;;
1885;SDS011;943;51.568;6.998;2023-02-28T15:25:02;5.40;;;3.20;;
1885;SDS011;943;51.568;6.998;2023-02-28T15:27:35;4.00;;;3.17;;
1885;SDS011;943;51.568;6.998;2023-02-28T15:30:30;7.17;;;3.00;;
1885;SDS011;943;51.568;6.998;2023-02-28T15:33:03;6.40;;;3.87;;
1885;SDS011;943;51.568;6.998;2023-02-28T15:35:46;5.07;;;3.50;;
1885;SDS011;943;51.568;6.998;2023-02-28T15:40:53;5.30;;;2.93;;
1885;SDS011;943;51.568;6.998;2023-02-28T15:43:32;4.60;;;2.90;;
1885;SDS011;943;51.568;6.998;2023-02-28T15:48:44;5.33;;;4.50;;
1885;SDS011;943;51.568;6.998;2023-02-28T15:51:32;6.33;;;3.07;;
1885;SDS011;943;51.568;6.998;2023-02-28T15:54:10;4.97;;;3.63;;
1885;SDS011;943;51.568;6.998;2023-02-28T15:56:51;7.60;;;4.20;;
1885;SDS011;943;51.568;6.998;2023-02-28T15:59:28;6.70;;;4.13;;
1885;SDS011;943;51.568;6.998;2023-02-28T16:02:18;4.70;;;3.30;;
1885;SDS011;943;51.568;6.998;2023-02-28T16:07:38;9.77;;;4.20;;
1885;SDS011;943;51.568;6.998;2023-02-28T16:10:11;4.90;;;3.70;;
1885;SDS011;943;51.568;6.998;2023-02-28T16:12:40;5.93;;;3.87;;
1885;SDS011;943;51.568;6.998;2023-02-28T16:15:17;5.60;;;3.70;;
1885;SDS011;943;51.568;6.998;2023-02-28T16:17:56;13.30;;;4.50;;
1885;SDS011;943;51.568;6.998;2023-02-28T16:20:26;7.80;;;4.20;;
1885;SDS011;943;51.568;6.998;2023-02-28T16:22:57;9.23;;;3.63;;
1885;SDS011;943;51.568;6.998;2023-02-28T16:25:36;7.20;;;4.17;;
1885;SDS011;943;51.568;6.998;2023-02-28T16:28:20;5.20;;;3.83;;
1885;SDS011;943;51.568;6.998;2023-02-28T16:31:01;4.40;;;3.33;;
1885;SDS011;943;51.568;6.998;2023-02-28T16:33:34;5.43;;;3.50;;
1885;SDS011;943;51.568;6.998;2023-02-28T16:36:02;5.37;;;3.70;;
1885;SDS011;943;51.568;6.998;2023-02-28T16:38:30;4.37;;;3.60;;
1885;SDS011;943;51.568;6.998;2023-02-28T16:41:00;6.77;;;4.03;;
1885;SDS011;943;51.568;6.998;2023-02-28T16:43:28;6.50;;;3.50;;
1885;SDS011;943;51.568;6.998;2023-02-28T16:45:56;9.20;;;4.07;;
1885;SDS011;943;51.568;6.998;2023-02-28T16:48:27;8.53;;;3.70;;
1885;SDS011;943;51.568;6.998;2023-02-28T16:50:56;6.70;;;4.10;;
1885;SDS011;943;51.568;6.998;2023-02-28T16:53:24;6.50;;;3.50;;
1885;SDS011;943;51.568;6.998;2023-02-28T16:55:51;7.33;;;3.90;;
1885;SDS011;943;51.568;6.998;2023-02-28T16:58:19;5.60;;;3.33;;
1885;SDS011;943;51.568;6.998;2023-02-28T17:00:50;13.83;;;8.30;;
1885;SDS011;943;51.568;6.998;2023-02-28T17:03:20;20.27;;;14.17;;
1885;SDS011;943;51.568;6.998;2023-02-28T17:05:59;9.17;;;4.40;;
1885;SDS011;943;51.568;6.998;2023-02-28T17:08:27;7.00;;;3.33;;
1885;SDS011;943;51.568;6.998;2023-02-28T17:10:59;8.07;;;4.40;;
1885;SDS011;943;51.568;6.998;2023-02-28T17:13:29;5.63;;;3.50;;
1885;SDS011;943;51.568;6.998;2023-02-28T17:15:57;8.33;;;3.50;;
1885;SDS011;943;51.568;6.998;2023-02-28T17:18:25;6.13;;;3.80;;
1885;SDS011;943;51.568;6.998;2023-02-28T17:20:55;6.17;;;3.90;;
1885;SDS011;943;51.568;6.998;2023-02-28T17:23:23;7.53;;;3.80;;
1885;SDS011;943;51.568;6.998;2023-02-28T17:25:51;6.57;;;4.37;;
1885;SDS011;943;51.568;6.998;2023-02-28T17:28:23;8.00;;;4.90;;
1885;SDS011;943;51.568;6.998;2023-02-28T17:30:51;7.10;;;4.40;;
1885;SDS011;943;51.568;6.998;2023-02-28T17:33:19;6.90;;;5.20;;
1885;SDS011;943;51.568;6.998;2023-02-28T17:35:47;6.50;;;4.73;;
1885;SDS011;943;51.568;6.998;2023-02-28T17:38:16;6.73;;;4.53;;
1885;SDS011;943;51.568;6.998;2023-02-28T17:40:49;7.07;;;4.00;;
1885;SDS011;943;51.568;6.998;2023-02-28T17:43:17;8.00;;;5.27;;
1885;SDS011;943;51.568;6.998;2023-02-28T17:45:45;7.43;;;5.60;;
1885;SDS011;943;51.568;6.998;2023-02-28T17:48:12;9.20;;;5.10;;
1885;SDS011;943;51.568;6.998;2023-02-28T17:50:41;8.43;;;5.40;;
1885;SDS011;943;51.568;6.998;2023-02-28T17:53:09;8.10;;;5.53;;
1885;SDS011;943;51.568;6.998;2023-02-28T17:55:37;9.13;;;5.47;;
1885;SDS011;943;51.568;6.998;2023-02-28T17:58:08;12.47;;;7.10;;
1885;SDS011;943;51.568;6.998;2023-02-28T18:00:39;9.10;;;5.97;;
1885;SDS011;943;51.568;6.998;2023-02-28T18:03:07;9.07;;;6.30;;
1885;SDS011;943;51.568;6.998;2023-02-28T18:05:36;7.77;;;6.60;;
1885;SDS011;943;51.568;6.998;2023-02-28T18:08:04;9.20;;;5.70;;
1885;SDS011;943;51.568;6.998;2023-02-28T18:10:32;8.47;;;6.10;;
1885;SDS011;943;51.568;6.998;2023-02-28T18:13:00;7.90;;;5.77;;
1885;SDS011;943;51.568;6.998;2023-02-28T18:15:30;8.10;;;5.60;;
1885;SDS011;943;51.568;6.998;2023-02-28T18:17:58;7.47;;;5.70;;
1885;SDS011;943;51.568;6.998;2023-02-28T18:20:26;9.33;;;6.17;;
1885;SDS011;943;51.568;6.998;2023-02-28T18:22:54;9.00;;;5.33;;
1885;SDS011;943;51.568;6.998;2023-02-28T18:25:22;8.10;;;5.83;;
1885;SDS011;943;51.568;6.998;2023-02-28T18:27:51;6.03;;;5.13;;
1885;SDS011;943;51.568;6.998;2023-02-28T18:30:20;7.93;;;5.80;;
1885;SDS011;943;51.568;6.998;2023-02-28T18:32:48;8.07;;;5.20;;
1885;SDS011;943;51.568;6.998;2023-02-28T18:35:16;7.93;;;4.90;;
1885;SDS011;943;51.568;6.998;2023-02-28T18:38:07;6.53;;;4.77;;
1885;SDS011;943;51.568;6.998;2023-02-28T18:40:52;9.47;;;5.50;;
1885;SDS011;943;51.568;6.998;2023-02-28T18:43:29;6.77;;;5.00;;
1885;SDS011;943;51.568;6.998;2023-02-28T18:46:05;6.80;;;5.00;;
1885;SDS011;943;51.568;6.998;2023-02-28T18:48:42;9.60;;;5.67;;
1885;SDS011;943;51.568;6.998;2023-02-28T18:51:12;8.80;;;6.50;;
1885;SDS011;943;51.568;6.998;2023-02-28T18:53:50;9.30;;;7.33;;
1885;SDS011;943;51.568;6.998;2023-02-28T18:56:20;10.17;;;7.30;;